Time;durP1;ratioP1;P1;durP2;ratioP2;P2;SDS_P1;SDS_P2;PMS_P1;PMS_P2;Temp;Humidity;BMP_temperature;BMP_pressure;BME280_temperature;BME280_humidity;BME280_pressure;Samples;Min_cycle;Max_cycle;Signal;HPM_P1;HPM_P2
2022/04/02 00:00:22;;;;;;;5.75;2.50;;;2.60;93.30;;;;;;5138541;27;20043;-40
2022/04/02 00:02:49;;;;;;;3.80;1.98;;;2.60;93.40;;;;;;5152765;27;20571;-40
2022/04/02 00:05:14;;;;;;;5.65;2.10;;;2.60;93.00;;;;;;5152938;27;20011;-40
2022/04/02 00:07:40;;;;;;;3.75;1.90;;;2.60;92.90;;;;;;5151763;27;20379;-40
2022/04/02 00:10:07;;;;;;;5.15;2.20;;;2.60;92.40;;;;;;5150852;27;20135;-40
2022/04/02 00:12:32;;;;;;;3.72;2.17;;;2.60;92.40;;;;;;5153243;27;20379;-40
2022/04/02 00:14:59;;;;;;;9.10;2.17;;;2.60;92.40;;;;;;5152763;27;20026;-40
2022/04/02 00:17:24;;;;;;;3.55;2.63;;;2.50;92.40;;;;;;5152974;27;20019;-40
2022/04/02 00:19:50;;;;;;;6.78;2.20;;;2.50;92.60;;;;;;5152150;27;20172;-40
2022/04/02 00:22:16;;;;;;;4.50;2.28;;;2.50;92.90;;;;;;5151365;27;20023;-40
2022/04/02 00:24:42;;;;;;;4.18;1.98;;;2.40;93.30;;;;;;5152340;27;20273;-40
2022/04/02 00:27:08;;;;;;;5.53;2.13;;;2.40;93.50;;;;;;5152399;27;20534;-40
2022/04/02 00:29:34;;;;;;;6.63;2.35;;;2.40;93.60;;;;;;5135380;27;20019;-40
2022/04/02 00:32:00;;;;;;;4.05;2.25;;;2.50;93.40;;;;;;5146290;27;20022;-39
2022/04/02 00:34:26;;;;;;;4.53;2.42;;;2.50;93.70;;;;;;5152363;27;20031;-37
2022/04/02 00:36:52;;;;;;;9.18;2.10;;;2.40;93.70;;;;;;5150828;27;20055;-37
2022/04/02 00:39:17;;;;;;;2.97;2.10;;;2.40;93.80;;;;;;5151355;27;20033;-37
2022/04/02 00:41:43;;;;;;;5.55;2.22;;;2.40;94.00;;;;;;5152143;27;20106;-40
2022/04/02 00:44:12;;;;;;;5.43;2.03;;;2.30;93.80;;;;;;5151805;27;20140;-40
2022/04/02 00:46:42;;;;;;;4.88;2.10;;;2.30;94.00;;;;;;5152362;27;20015;-40
2022/04/02 00:49:09;;;;;;;3.28;2.30;;;2.30;93.80;;;;;;5151616;27;20153;-40
2022/04/02 00:51:41;;;;;;;3.88;1.98;;;2.30;93.70;;;;;;5152077;27;20107;-40
2022/04/02 00:54:11;;;;;;;8.27;2.78;;;2.30;93.70;;;;;;5152050;27;20022;-38
2022/04/02 00:56:38;;;;;;;5.72;2.50;;;2.20;93.90;;;;;;5152245;27;20026;-39
2022/04/02 00:59:04;;;;;;;7.30;1.95;;;2.20;94.20;;;;;;5138876;27;20035;-38
2022/04/02 01:01:31;;;;;;;5.13;2.63;;;2.30;94.60;;;;;;5143458;27;20042;-38
2022/04/02 01:04:02;;;;;;;6.13;1.95;;;2.30;94.20;;;;;;5150035;27;20033;-39
2022/04/02 01:06:29;;;;;;;4.82;2.25;;;2.30;94.50;;;;;;5151810;27;20018;-45
2022/04/02 01:08:55;;;;;;;3.10;2.30;;;2.20;94.70;;;;;;5151131;27;20019;-39
2022/04/02 01:11:20;;;;;;;6.10;2.00;;;2.20;95.30;;;;;;5151673;27;20199;-39
2022/04/02 01:13:46;;;;;;;4.95;2.47;;;2.20;95.00;;;;;;5151606;27;20062;-39
2022/04/02 01:16:12;;;;;;;4.80;2.30;;;2.30;95.40;;;;;;5151288;27;20083;-39
2022/04/02 01:18:37;;;;;;;5.57;3.03;;;2.30;95.10;;;;;;5151048;27;20353;-39
2022/04/02 01:21:03;;;;;;;3.13;2.10;;;2.30;95.30;;;;;;5151525;27;20097;-39
2022/04/02 01:23:29;;;;;;;5.68;2.47;;;2.30;96.00;;;;;;5151692;27;20110;-39
2022/04/02 01:25:59;;;;;;;7.45;3.22;;;2.30;96.20;;;;;;5151733;27;20220;-39
2022/04/02 01:28:25;;;;;;;3.40;2.55;;;2.30;96.90;;;;;;5141563;27;20020;-39
2022/04/02 01:30:51;;;;;;;9.02;3.22;;;2.30;96.80;;;;;;5141625;27;20460;-39
2022/04/02 01:33:17;;;;;;;3.65;2.35;;;2.20;97.10;;;;;;5150845;27;20022;-40
2022/04/02 01:35:43;;;;;;;6.88;2.22;;;2.30;97.50;;;;;;5150965;27;20468;-39
2022/04/02 01:38:08;;;;;;;4.75;2.30;;;2.20;97.70;;;;;;5151229;27;20089;-39
2022/04/02 01:40:34;;;;;;;5.13;2.58;;;2.20;98.00;;;;;;5150125;27;20030;-39
2022/04/02 01:42:59;;;;;;;6.15;3.00;;;2.10;98.70;;;;;;5150861;27;20027;-39
2022/04/02 01:45:25;;;;;;;6.95;2.60;;;2.10;99.10;;;;;;5150810;27;20279;-38
2022/04/02 01:47:53;;;;;;;4.68;2.85;;;2.00;99.30;;;;;;5150843;27;20539;-38
2022/04/02 01:50:19;;;;;;;5.55;3.03;;;2.00;99.70;;;;;;5150486;27;20106;-38
2022/04/02 01:52:44;;;;;;;9.60;2.85;;;1.90;99.90;;;;;;5150934;27;20086;-39
2022/04/02 01:55:10;;;;;;;4.45;2.85;;;1.90;99.90;;;;;;5150924;27;20023;-39
2022/04/02 01:57:36;;;;;;;5.53;2.53;;;1.90;99.90;;;;;;5148716;27;20014;-40
2022/04/02 02:00:04;;;;;;;5.55;2.60;;;1.90;99.90;;;;;;5132279;27;20031;-39
2022/04/02 02:02:31;;;;;;;4.78;3.50;;;1.80;99.90;;;;;;5149519;27;20110;-39
2022/04/02 02:04:56;;;;;;;9.23;2.92;;;1.70;99.90;;;;;;5150709;27;20114;-39
2022/04/02 02:07:22;;;;;;;5.32;2.83;;;1.70;99.90;;;;;;5151124;27;20454;-39
2022/04/02 02:09:47;;;;;;;7.68;3.17;;;1.70;99.90;;;;;;5150271;27;20555;-39
2022/04/02 02:12:14;;;;;;;7.93;3.55;;;1.70;99.90;;;;;;5149805;27;20023;-39
2022/04/02 02:14:39;;;;;;;7.72;3.38;;;1.80;99.90;;;;;;5150552;27;20054;-39
2022/04/02 02:17:05;;;;;;;8.85;3.28;;;1.70;99.90;;;;;;5150467;27;20047;-39
2022/04/02 02:19:30;;;;;;;12.27;3.25;;;1.60;99.90;;;;;;5148556;27;20388;-38
2022/04/02 02:21:57;;;;;;;10.10;3.28;;;1.60;99.90;;;;;;5150309;27;20122;-38
2022/04/02 02:24:22;;;;;;;6.50;3.17;;;1.60;99.90;;;;;;5150322;27;20023;-38
2022/04/02 02:26:48;;;;;;;5.97;2.58;;;1.60;99.90;;;;;;5150396;27;20529;-38
2022/04/02 02:29:13;;;;;;;5.95;3.05;;;1.60;99.90;;;;;;5136475;27;20022;-38
2022/04/02 02:31:39;;;;;;;5.10;2.92;;;1.60;99.90;;;;;;5141501;27;20023;-38
2022/04/02 02:36:49;;;;;;;4.05;2.42;;;1.50;99.90;;;;;;5150644;27;20113;-38
2022/04/02 02:39:14;;;;;;;9.82;3.25;;;1.50;99.90;;;;;;5149812;27;20108;-39
2022/04/02 02:41:40;;;;;;;5.10;3.13;;;1.50;99.90;;;;;;5150299;27;20075;-38
2022/04/02 02:44:06;;;;;;;5.70;2.85;;;1.50;99.90;;;;;;5149825;27;20650;-38
2022/04/02 02:46:33;;;;;;;5.32;2.80;;;1.60;99.90;;;;;;5136116;27;20023;-38
2022/04/02 02:48:58;;;;;;;4.60;2.90;;;1.60;99.90;;;;;;5121768;27;20072;-38
2022/04/02 02:51:24;;;;;;;4.72;3.00;;;1.60;99.90;;;;;;5124169;27;20023;-38
2022/04/02 02:53:49;;;;;;;8.43;2.72;;;1.50;99.90;;;;;;5122603;27;20019;-39
2022/04/02 02:56:15;;;;;;;5.53;3.13;;;1.50;99.90;;;;;;5122815;27;20023;-39
2022/04/02 02:58:40;;;;;;;5.55;2.95;;;1.50;99.90;;;;;;5124927;27;20019;-39
2022/04/02 03:01:06;;;;;;;6.05;2.83;;;1.40;99.90;;;;;;5129741;27;20070;-39
2022/04/02 03:03:32;;;;;;;5.30;3.22;;;1.50;99.90;;;;;;5120930;27;20031;-39
2022/04/02 03:05:57;;;;;;;6.40;3.03;;;1.50;99.90;;;;;;5121428;27;20016;-39
2022/04/02 03:08:23;;;;;;;4.82;3.08;;;1.50;99.90;;;;;;5122677;27;20376;-39
2022/04/02 03:10:49;;;;;;;6.65;3.00;;;1.50;99.90;;;;;;5121369;27;20075;-37
2022/04/02 03:13:15;;;;;;;6.10;3.03;;;1.40;99.90;;;;;;5123316;27;20019;-37
2022/04/02 03:15:40;;;;;;;5.30;3.40;;;1.40;99.90;;;;;;5121963;27;20042;-37
2022/04/02 03:18:08;;;;;;;6.07;3.30;;;1.40;99.90;;;;;;5122079;27;20039;-37
2022/04/02 03:20:35;;;;;;;7.95;2.90;;;1.30;99.90;;;;;;5122764;27;20015;-37
2022/04/02 03:23:01;;;;;;;5.57;3.13;;;1.30;99.90;;;;;;5121678;27;20023;-37
2022/04/02 03:25:27;;;;;;;6.47;3.22;;;1.20;99.90;;;;;;5120717;27;20464;-38
2022/04/02 03:27:53;;;;;;;4.72;2.88;;;1.20;99.90;;;;;;5121117;27;20034;-38
2022/04/02 03:30:20;;;;;;;4.82;2.55;;;1.20;99.90;;;;;;5130684;27;20041;-38
2022/04/02 03:32:47;;;;;;;4.60;3.05;;;1.20;99.90;;;;;;5125571;27;20376;-39
2022/04/02 03:35:16;;;;;;;5.47;3.22;;;1.20;99.90;;;;;;5129732;27;20019;-39
2022/04/02 03:37:44;;;;;;;7.60;3.50;;;1.10;99.90;;;;;;5133044;27;20132;-38
2022/04/02 03:40:14;;;;;;;7.32;3.10;;;1.10;99.90;;;;;;5132121;27;20019;-38
2022/04/02 03:42:41;;;;;;;10.30;3.67;;;1.10;99.90;;;;;;5132631;27;20023;-39
2022/04/02 03:45:08;;;;;;;7.13;3.75;;;1.10;99.90;;;;;;5130910;27;20034;-38
2022/04/02 03:47:34;;;;;;;6.13;3.47;;;1.10;99.90;;;;;;5132490;27;20031;-38
2022/04/02 03:49:59;;;;;;;5.70;2.80;;;1.00;99.90;;;;;;5131878;27;20124;-38
2022/04/02 03:52:25;;;;;;;6.20;3.20;;;1.00;99.90;;;;;;5132841;27;20027;-38
2022/04/02 03:54:51;;;;;;;4.43;2.97;;;1.00;99.90;;;;;;5132618;27;20019;-38
2022/04/02 03:57:17;;;;;;;4.68;3.33;;;1.10;99.90;;;;;;5132548;27;20072;-38
2022/04/02 03:59:43;;;;;;;14.93;3.85;;;1.10;99.90;;;;;;5133879;27;20106;-38
2022/04/02 04:02:10;;;;;;;5.18;3.08;;;1.00;99.90;;;;;;5148734;27;20038;-38
2022/04/02 04:04:36;;;;;;;7.70;3.15;;;1.00;99.90;;;;;;5153036;27;20110;-38
2022/04/02 04:07:03;;;;;;;6.03;3.00;;;0.90;99.90;;;;;;5153392;27;20026;-38
2022/04/02 04:09:30;;;;;;;7.35;3.35;;;1.00;99.90;;;;;;5151032;27;20495;-38
2022/04/02 04:11:56;;;;;;;6.43;3.72;;;0.90;99.90;;;;;;5152921;27;20027;-38
2022/04/02 04:14:24;;;;;;;6.13;3.40;;;0.90;99.90;;;;;;5152573;27;20030;-39
2022/04/02 04:16:50;;;;;;;4.63;3.08;;;1.00;99.90;;;;;;5153141;27;20051;-38
2022/04/02 04:19:16;;;;;;;5.00;3.53;;;0.90;99.90;;;;;;5152091;27;20283;-38
2022/04/02 04:21:43;;;;;;;6.65;2.90;;;0.90;99.90;;;;;;5151204;27;20473;-38
2022/04/02 04:24:09;;;;;;;7.40;3.72;;;0.90;99.90;;;;;;5152453;27;20038;-38
2022/04/02 04:26:35;;;;;;;5.30;3.45;;;0.80;99.90;;;;;;5152965;27;20030;-38
2022/04/02 04:29:01;;;;;;;5.63;3.78;;;0.80;99.90;;;;;;5141587;27;20117;-38
2022/04/02 04:31:27;;;;;;;5.15;3.10;;;0.80;99.90;;;;;;5144019;27;20094;-38
2022/04/02 04:33:52;;;;;;;8.25;3.55;;;0.80;99.90;;;;;;5152317;27;20056;-38
2022/04/02 04:36:19;;;;;;;5.65;3.35;;;0.90;99.90;;;;;;5152389;27;20022;-38
2022/04/02 04:38:46;;;;;;;6.10;3.50;;;0.80;99.90;;;;;;5151645;27;20110;-38
2022/04/02 04:41:11;;;;;;;5.68;3.60;;;0.80;99.90;;;;;;5152354;27;20027;-38
2022/04/02 04:43:37;;;;;;;6.95;3.60;;;0.80;99.90;;;;;;5151769;27;20067;-38
2022/04/02 04:46:03;;;;;;;6.95;3.78;;;0.70;99.90;;;;;;5151937;27;20428;-39
2022/04/02 04:48:29;;;;;;;8.35;4.00;;;0.70;99.90;;;;;;5152135;27;20038;-38
2022/04/02 04:50:55;;;;;;;8.90;3.50;;;0.70;99.90;;;;;;5151325;27;20023;-38
2022/04/02 04:53:21;;;;;;;4.90;4.00;;;0.70;99.90;;;;;;5151814;27;20034;-38
2022/04/02 04:55:46;;;;;;;7.03;3.97;;;0.70;99.90;;;;;;5151923;27;20109;-38
2022/04/02 04:58:12;;;;;;;11.60;4.38;;;0.70;99.90;;;;;;5142259;27;20478;-38
2022/04/02 05:00:37;;;;;;;7.95;4.43;;;0.70;99.90;;;;;;5141595;27;20038;-39
2022/04/02 05:03:04;;;;;;;11.32;4.05;;;0.60;99.90;;;;;;5139687;27;20115;-38
2022/04/02 05:05:31;;;;;;;8.63;4.40;;;0.60;99.90;;;;;;5117853;27;20476;-38
2022/04/02 05:07:58;;;;;;;9.60;5.07;;;0.60;99.90;;;;;;5108537;28;20024;-38
2022/04/02 05:10:24;;;;;;;6.22;3.72;;;0.60;99.90;;;;;;5109760;28;20404;-38
2022/04/02 05:12:49;;;;;;;7.35;3.95;;;0.60;99.90;;;;;;5110235;28;20020;-38
2022/04/02 05:15:15;;;;;;;9.07;4.93;;;0.60;99.90;;;;;;5108540;28;20027;-38
2022/04/02 05:17:42;;;;;;;7.57;3.95;;;0.60;99.90;;;;;;5121242;27;20487;-38
2022/04/02 05:20:11;;;;;;;6.32;3.88;;;0.70;99.90;;;;;;5120657;27;20047;-38
2022/04/02 05:22:37;;;;;;;7.10;3.80;;;0.70;99.90;;;;;;5121684;27;20023;-38
2022/04/02 05:25:04;;;;;;;6.95;4.43;;;0.70;99.90;;;;;;5120484;27;20107;-39
2022/04/02 05:27:29;;;;;;;9.38;4.40;;;0.70;99.90;;;;;;5116543;27;20020;-39
2022/04/02 05:29:55;;;;;;;8.90;4.32;;;0.70;99.90;;;;;;5132968;27;20491;-39
2022/04/02 05:32:21;;;;;;;6.10;4.03;;;0.80;99.90;;;;;;5148660;27;20058;-38
2022/04/02 05:34:46;;;;;;;8.65;5.10;;;0.80;99.90;;;;;;5119957;27;20059;-39
2022/04/02 05:37:13;;;;;;;6.13;4.53;;;0.80;99.90;;;;;;5123944;27;20096;-39
2022/04/02 05:39:41;;;;;;;8.10;4.32;;;0.80;99.90;;;;;;5123063;27;20058;-38
2022/04/02 05:42:07;;;;;;;7.47;3.88;;;0.90;99.90;;;;;;5115714;27;20031;-39
2022/04/02 05:44:32;;;;;;;11.20;5.10;;;1.00;99.90;;;;;;5122968;27;20031;-38
2022/04/02 05:46:58;;;;;;;8.77;5.15;;;1.00;99.90;;;;;;5127540;27;20148;-38
2022/04/02 05:49:23;;;;;;;11.00;4.78;;;1.20;99.90;;;;;;5120769;27;20031;-39
2022/04/02 05:51:49;;;;;;;7.28;4.57;;;1.30;99.90;;;;;;5116973;27;20472;-38
2022/04/02 05:54:14;;;;;;;7.40;4.40;;;1.30;99.90;;;;;;5117364;27;20031;-39
2022/04/02 05:56:41;;;;;;;7.25;4.47;;;1.40;99.90;;;;;;5118650;27;20026;-39
2022/04/02 05:59:08;;;;;;;12.07;5.38;;;1.50;99.90;;;;;;5124646;27;20051;-39
2022/04/02 06:01:35;;;;;;;11.90;4.80;;;1.50;99.90;;;;;;5141088;27;20522;-39
2022/04/02 06:04:01;;;;;;;9.65;4.50;;;1.60;99.90;;;;;;5149859;27;20030;-39
2022/04/02 06:06:27;;;;;;;9.40;4.20;;;1.70;99.90;;;;;;5134017;27;20105;-39
2022/04/02 06:08:52;;;;;;;10.02;4.28;;;1.70;99.90;;;;;;5118689;27;20429;-39
2022/04/02 06:11:18;;;;;;;10.50;4.70;;;1.80;99.90;;;;;;5129114;27;20023;-39
2022/04/02 06:13:43;;;;;;;10.77;4.57;;;1.80;99.90;;;;;;5128744;27;20092;-38
2022/04/02 06:16:09;;;;;;;9.55;3.90;;;1.80;99.90;;;;;;5128865;27;20038;-38
2022/04/02 06:18:35;;;;;;;7.00;4.60;;;1.90;99.90;;;;;;5110168;27;20106;-38
2022/04/02 06:21:03;;;;;;;7.05;3.97;;;2.00;99.90;;;;;;5110498;27;20055;-38
2022/04/02 06:23:30;;;;;;;8.10;4.28;;;2.10;99.90;;;;;;5107953;27;20049;-38
2022/04/02 06:25:55;;;;;;;9.48;5.82;;;2.10;99.90;;;;;;5109224;28;20027;-38
2022/04/02 06:28:21;;;;;;;7.75;4.05;;;2.30;99.90;;;;;;5110367;27;20028;-38
2022/04/02 06:30:47;;;;;;;7.68;3.72;;;2.30;99.90;;;;;;5140769;27;20022;-38
2022/04/02 06:33:12;;;;;;;9.45;4.13;;;2.40;99.90;;;;;;5150170;27;20105;-39
2022/04/02 06:35:38;;;;;;;6.38;4.03;;;2.40;99.90;;;;;;5150551;27;20037;-38
2022/04/02 06:38:03;;;;;;;7.22;4.00;;;2.50;99.90;;;;;;5150159;27;20078;-39
2022/04/02 06:40:29;;;;;;;6.55;3.55;;;2.50;99.90;;;;;;5149185;27;20031;-38
2022/04/02 06:42:56;;;;;;;6.45;3.85;;;2.70;99.90;;;;;;5149721;27;20070;-39
2022/04/02 06:45:23;;;;;;;6.97;3.53;;;2.80;99.90;;;;;;5149815;27;20064;-39
2022/04/02 06:47:48;;;;;;;6.95;3.40;;;2.90;99.90;;;;;;5148763;27;20019;-39
2022/04/02 06:50:14;;;;;;;6.45;2.85;;;3.00;99.90;;;;;;5149381;27;20018;-39
2022/04/02 06:52:41;;;;;;;6.63;3.35;;;3.00;99.90;;;;;;5142082;27;20067;-39
2022/04/02 06:55:11;;;;;;;5.00;2.45;;;3.00;99.90;;;;;;5129380;27;20455;-41
2022/04/02 06:57:44;;;;;;;6.07;3.40;;;3.00;99.90;;;;;;5129615;27;20161;-39
2022/04/02 07:00:11;;;;;;;6.55;2.88;;;3.00;99.80;;;;;;5131961;27;20034;-39
2022/04/02 07:02:37;;;;;;;5.22;2.55;;;3.10;99.90;;;;;;5144033;27;20085;-39
2022/04/02 07:05:06;;;;;;;6.00;2.75;;;3.30;99.50;;;;;;5129046;27;20023;-38
2022/04/02 07:07:32;;;;;;;8.95;3.28;;;3.30;98.80;;;;;;5128167;27;20110;-39
2022/04/02 07:09:57;;;;;;;6.53;4.18;;;3.30;99.40;;;;;;5127253;27;20102;-39
2022/04/02 07:12:23;;;;;;;5.72;2.88;;;3.30;99.20;;;;;;5129059;27;20048;-38
2022/04/02 07:14:49;;;;;;;4.47;2.67;;;3.50;98.90;;;;;;5128761;27;20058;-38
2022/04/02 07:17:14;;;;;;;7.53;2.50;;;3.50;98.70;;;;;;5128938;27;20339;-38
2022/04/02 07:19:41;;;;;;;5.05;2.80;;;3.60;97.90;;;;;;5127060;28;20027;-38
2022/04/02 07:22:08;;;;;;;5.65;2.88;;;3.50;97.40;;;;;;5129108;27;20062;-39
2022/04/02 07:24:37;;;;;;;9.00;3.10;;;3.50;97.60;;;;;;5129103;28;20049;-38
2022/04/02 07:27:02;;;;;;;11.10;2.95;;;3.60;97.70;;;;;;5127822;27;20072;-38
2022/04/02 07:29:31;;;;;;;4.93;3.13;;;3.50;97.40;;;;;;5132775;27;20019;-38
2022/04/02 07:31:56;;;;;;;8.60;3.05;;;3.50;97.70;;;;;;5145874;27;20022;-38
2022/04/02 07:34:22;;;;;;;6.18;2.65;;;3.50;97.80;;;;;;5152398;27;20391;-38
2022/04/02 07:37:24;;;;;;;10.30;3.15;;;3.60;97.10;;;;;;5153547;27;20023;-39
2022/04/02 07:40:24;;;;;;;6.20;2.67;;;3.60;96.80;;;;;;5152937;27;20054;-39
2022/04/02 07:43:08;;;;;;;5.40;2.63;;;3.70;97.40;;;;;;5153260;27;20180;-38
2022/04/02 07:45:42;;;;;;;5.03;2.60;;;3.70;96.60;;;;;;5153228;27;20447;-39
2022/04/02 07:48:10;;;;;;;5.65;2.90;;;3.60;97.00;;;;;;5152077;27;20491;-39
2022/04/02 07:50:40;;;;;;;4.63;3.08;;;3.60;96.90;;;;;;5152505;27;20305;-39
2022/04/02 07:53:11;;;;;;;6.25;3.45;;;3.70;96.80;;;;;;5153538;27;20055;-39
2022/04/02 07:55:40;;;;;;;5.78;3.20;;;3.70;97.00;;;;;;5153042;27;20027;-39
2022/04/02 07:58:09;;;;;;;5.30;2.88;;;3.80;96.10;;;;;;5147693;27;20058;-39
2022/04/02 08:00:35;;;;;;;7.25;3.40;;;3.90;95.90;;;;;;5142245;27;20035;-39
2022/04/02 08:03:01;;;;;;;4.82;3.17;;;3.90;96.00;;;;;;5153075;27;20472;-39
2022/04/02 08:05:27;;;;;;;5.07;2.95;;;3.80;96.20;;;;;;5151896;27;20186;-39
2022/04/02 08:07:55;;;;;;;7.18;2.70;;;3.90;96.50;;;;;;5153193;27;20026;-39
2022/04/02 08:10:27;;;;;;;4.50;2.95;;;3.90;96.00;;;;;;5152202;27;20056;-39
2022/04/02 08:12:55;;;;;;;5.60;3.00;;;3.90;96.10;;;;;;5152865;27;20027;-39
2022/04/02 08:15:22;;;;;;;8.00;3.10;;;4.00;96.20;;;;;;5152491;27;20491;-39
2022/04/02 08:17:54;;;;;;;4.47;2.53;;;3.90;95.70;;;;;;5152686;27;20030;-39
2022/04/02 08:20:22;;;;;;;8.43;3.13;;;4.00;96.20;;;;;;5152414;27;20151;-39
2022/04/02 08:22:47;;;;;;;8.43;3.85;;;4.10;95.50;;;;;;5152881;27;20021;-39
2022/04/02 08:25:14;;;;;;;7.22;3.50;;;4.30;95.70;;;;;;5151291;27;20109;-39
2022/04/02 08:27:54;;;;;;;5.07;2.67;;;4.40;94.80;;;;;;5152613;27;20505;-38
2022/04/02 08:30:32;;;;;;;8.18;3.35;;;4.40;94.90;;;;;;5137152;27;20015;-39
2022/04/02 08:33:18;;;;;;;7.45;2.88;;;4.60;94.00;;;;;;5152725;27;20027;-39
2022/04/02 08:36:00;;;;;;;8.82;3.10;;;4.60;93.40;;;;;;5152342;27;20023;-38
2022/04/02 08:38:57;;;;;;;7.07;3.20;;;4.70;94.30;;;;;;5152131;27;20042;-39
2022/04/02 08:41:26;;;;;;;5.97;2.88;;;4.80;93.40;;;;;;5152525;27;20490;-39
2022/04/02 08:44:21;;;;;;;4.20;2.72;;;4.90;92.80;;;;;;5151047;27;20083;-39
2022/04/02 08:47:13;;;;;;;9.13;3.65;;;5.00;93.60;;;;;;5152477;27;20022;-39
2022/04/02 08:50:01;;;;;;;6.20;3.00;;;5.20;93.20;;;;;;5151672;27;20041;-39
2022/04/02 08:52:54;;;;;;;5.32;2.75;;;5.40;92.80;;;;;;5151949;27;20539;-39
2022/04/02 08:55:35;;;;;;;8.40;3.78;;;5.60;92.00;;;;;;5152411;27;20022;-39
2022/04/02 08:58:09;;;;;;;4.35;2.85;;;5.60;91.30;;;;;;5148807;27;20046;-39
2022/04/02 09:00:48;;;;;;;5.35;3.10;;;5.70;92.00;;;;;;5140518;27;20031;-39
2022/04/02 09:03:20;;;;;;;4.30;2.60;;;5.80;91.30;;;;;;5152361;27;20019;-39
2022/04/02 09:05:51;;;;;;;6.13;2.83;;;6.10;90.20;;;;;;5152118;27;20165;-47
2022/04/02 09:08:51;;;;;;;6.75;2.58;;;6.10;89.20;;;;;;5152057;27;20022;-47
2022/04/02 09:11:30;;;;;;;4.97;2.63;;;5.90;88.60;;;;;;5150471;27;20026;-47
2022/04/02 09:14:31;;;;;;;4.85;2.80;;;6.10;89.10;;;;;;5151280;27;20030;-47
2022/04/02 09:17:21;;;;;;;4.45;2.80;;;6.10;88.80;;;;;;5151673;27;20075;-48
2022/04/02 09:20:09;;;;;;;5.18;2.83;;;6.10;89.40;;;;;;5151449;27;20023;-48
2022/04/02 09:23:04;;;;;;;9.20;2.97;;;6.20;88.70;;;;;;5151271;27;20150;-49
2022/04/02 09:26:10;;;;;;;4.32;3.10;;;6.40;86.50;;;;;;5151337;27;20038;-48
2022/04/02 09:28:45;;;;;;;4.93;2.67;;;6.50;85.40;;;;;;5145308;27;20079;-46
2022/04/02 09:31:45;;;;;;;5.03;2.85;;;6.30;85.20;;;;;;5142957;27;20076;-47
2022/04/02 09:34:49;;;;;;;3.15;2.47;;;6.20;84.90;;;;;;5151368;27;20023;-46
2022/04/02 09:37:43;;;;;;;4.47;2.67;;;6.20;85.10;;;;;;5149817;27;20027;-49
2022/04/02 09:40:10;;;;;;;4.53;2.65;;;6.20;86.30;;;;;;5150441;27;20476;-45
2022/04/02 09:42:43;;;;;;;5.20;2.70;;;6.20;86.10;;;;;;5149562;27;20030;-47
2022/04/02 09:45:12;;;;;;;5.22;2.40;;;6.40;84.70;;;;;;5150530;27;20539;-46
2022/04/02 09:48:11;;;;;;;7.82;3.00;;;6.50;84.20;;;;;;5150626;27;20015;-45
2022/04/02 09:50:37;;;;;;;5.57;2.92;;;6.50;84.60;;;;;;5148743;27;20126;-47
2022/04/02 09:53:25;;;;;;;3.78;2.47;;;6.70;80.60;;;;;;5150696;27;20102;-46
2022/04/02 09:56:26;;;;;;;6.32;2.40;;;6.80;79.70;;;;;;5150855;27;20111;-46
2022/04/02 09:59:01;;;;;;;4.70;2.63;;;7.10;80.90;;;;;;5143289;27;20102;-48
2022/04/02 10:01:48;;;;;;;5.97;3.00;;;7.30;79.10;;;;;;5141620;27;20395;-47
2022/04/02 10:04:39;;;;;;;5.38;3.00;;;7.10;77.20;;;;;;5150456;27;20027;-47
2022/04/02 10:07:20;;;;;;;3.67;2.53;;;7.20;79.50;;;;;;5150640;27;20061;-49
2022/04/02 10:09:49;;;;;;;3.92;2.58;;;7.30;78.20;;;;;;5150009;27;20034;-46
2022/04/02 10:12:16;;;;;;;6.35;2.65;;;7.20;76.60;;;;;;5150389;27;20027;-46
2022/04/02 10:14:41;;;;;;;3.53;2.63;;;7.30;75.90;;;;;;5150202;27;20015;-46
2022/04/02 10:17:08;;;;;;;6.18;2.85;;;7.20;74.70;;;;;;5150478;27;20023;-47
2022/04/02 10:19:38;;;;;;;5.80;2.45;;;7.30;73.70;;;;;;5148489;27;20566;-47
2022/04/02 10:22:06;;;;;;;5.85;2.47;;;7.10;71.20;;;;;;5150413;27;20218;-46
2022/04/02 10:24:38;;;;;;;4.07;2.38;;;6.80;73.20;;;;;;5150372;27;20027;-46
2022/04/02 10:27:04;;;;;;;4.70;2.70;;;6.70;73.70;;;;;;5150341;27;20018;-46
2022/04/02 10:29:36;;;;;;;6.75;2.67;;;6.80;74.00;;;;;;5142177;27;20518;-46
2022/04/02 10:32:11;;;;;;;4.57;2.38;;;6.90;73.30;;;;;;5145094;27;20027;-46
2022/04/02 10:34:50;;;;;;;4.75;3.30;;;6.80;72.50;;;;;;5150288;27;20019;-47
2022/04/02 10:37:17;;;;;;;4.53;2.50;;;6.80;72.60;;;;;;5150229;27;20023;-48
2022/04/02 10:39:56;;;;;;;4.05;2.55;;;7.10;73.50;;;;;;5149490;27;20067;-47
2022/04/02 10:42:33;;;;;;;4.93;2.50;;;7.30;71.90;;;;;;5150125;27;20079;-46
2022/04/02 10:45:01;;;;;;;5.43;2.58;;;7.50;71.50;;;;;;5149930;27;20038;-47
2022/04/02 10:47:29;;;;;;;3.72;2.10;;;7.80;70.00;;;;;;5149978;27;20432;-47
2022/04/02 10:50:04;;;;;;;4.05;3.08;;;8.10;70.00;;;;;;5149567;27;20031;-47
2022/04/02 10:52:31;;;;;;;6.82;2.70;;;8.70;68.90;;;;;;5150263;27;20489;-46
2022/04/02 10:54:57;;;;;;;4.03;2.53;;;8.80;66.90;;;;;;5150248;27;20034;-46
2022/04/02 10:57:23;;;;;;;3.53;2.30;;;8.70;66.70;;;;;;5150250;27;20475;-46
2022/04/02 10:59:57;;;;;;;3.67;2.60;;;8.60;68.50;;;;;;5141410;27;20071;-47
2022/04/02 11:02:29;;;;;;;4.22;2.58;;;8.50;66.50;;;;;;5147477;27;20523;-49
2022/04/02 11:04:59;;;;;;;4.82;2.50;;;8.20;65.90;;;;;;5148626;27;20256;-48
2022/04/02 11:07:29;;;;;;;7.07;2.33;;;7.90;65.50;;;;;;5153727;27;20022;-47
2022/04/02 11:09:57;;;;;;;3.80;2.40;;;7.80;66.90;;;;;;5153263;27;20499;-47
2022/04/02 11:12:32;;;;;;;7.63;2.65;;;7.80;68.20;;;;;;5153851;27;20023;-48
2022/04/02 11:15:21;;;;;;;5.03;2.70;;;7.70;67.00;;;;;;5153798;27;20022;-47
2022/04/02 11:17:48;;;;;;;3.75;2.70;;;7.60;66.90;;;;;;5153804;27;20027;-47
2022/04/02 11:20:22;;;;;;;2.47;2.10;;;7.50;66.80;;;;;;5153231;27;20160;-48
2022/04/02 11:22:50;;;;;;;4.47;2.13;;;7.30;67.10;;;;;;5153648;27;20034;-47
2022/04/02 11:25:29;;;;;;;3.28;2.30;;;7.40;69.00;;;;;;5153597;27;20038;-49
2022/04/02 11:28:08;;;;;;;4.40;2.58;;;7.50;67.50;;;;;;5152403;27;20483;-47
2022/04/02 11:31:03;;;;;;;6.93;2.35;;;7.50;67.90;;;;;;5141353;27;20322;-46
2022/04/02 11:33:32;;;;;;;5.82;2.50;;;7.70;65.60;;;;;;5135636;27;20477;-48
2022/04/02 11:36:04;;;;;;;5.25;1.85;;;7.40;67.00;;;;;;5153923;27;20018;-47
2022/04/02 11:38:32;;;;;;;3.10;2.00;;;7.70;66.20;;;;;;5153609;27;20084;-49
2022/04/02 11:41:23;;;;;;;3.70;2.28;;;7.70;66.80;;;;;;5153090;27;20023;-46
2022/04/02 11:44:06;;;;;;;7.97;3.58;;;8.00;66.20;;;;;;5151902;27;20114;-51
2022/04/02 11:46:59;;;;;;;4.97;2.40;;;8.20;67.00;;;;;;5153420;27;20518;-48
2022/04/02 11:49:31;;;;;;;5.28;2.40;;;8.00;66.20;;;;;;5152776;27;20027;-48
2022/04/02 11:52:16;;;;;;;3.97;2.40;;;8.20;66.90;;;;;;5153303;27;20023;-48
2022/04/02 11:54:44;;;;;;;2.80;2.10;;;8.30;67.10;;;;;;5153252;27;20083;-45
2022/04/02 11:57:12;;;;;;;6.30;3.33;;;8.60;65.10;;;;;;5153119;27;20056;-46
2022/04/02 11:59:48;;;;;;;4.68;2.47;;;8.60;63.70;;;;;;5144142;27;20030;-46
2022/04/02 12:02:32;;;;;;;3.00;2.55;;;8.50;64.80;;;;;;5149696;27;20087;-46
2022/04/02 12:05:01;;;;;;;6.47;2.75;;;8.00;65.90;;;;;;5152865;27;20095;-47
2022/04/02 12:07:39;;;;;;;5.57;2.90;;;7.90;67.00;;;;;;5153113;27;20029;-46
2022/04/02 12:10:10;;;;;;;6.20;3.40;;;7.70;67.90;;;;;;5152812;27;20469;-46
2022/04/02 12:12:45;;;;;;;4.70;2.97;;;7.60;68.30;;;;;;5152983;27;20022;-46
2022/04/02 12:15:13;;;;;;;7.05;3.05;;;7.50;69.50;;;;;;5152561;27;20554;-45
2022/04/02 12:17:39;;;;;;;4.15;2.60;;;7.50;68.60;;;;;;5151311;27;20110;-47
2022/04/02 12:20:10;;;;;;;3.03;2.50;;;7.50;70.20;;;;;;5152239;27;20027;-48
2022/04/02 12:22:39;;;;;;;;;;;7.80;70.90;;;;;;5153141;27;20098;-47
2022/04/02 12:25:08;;;;;;;6.22;3.25;;;7.80;67.90;;;;;;5152567;27;19972;-47
2022/04/02 12:27:36;;;;;;;5.28;3.08;;;7.80;68.50;;;;;;5152552;27;20046;-47
2022/04/02 12:30:04;;;;;;;4.65;2.72;;;7.80;68.10;;;;;;5141541;27;20459;-47
2022/04/02 12:32:29;;;;;;;7.88;3.45;;;7.60;69.30;;;;;;5149623;27;20081;-47
2022/04/02 12:35:00;;;;;;;8.15;3.13;;;7.40;68.20;;;;;;5152577;27;20073;-47
2022/04/02 12:37:29;;;;;;;8.65;3.45;;;7.30;68.50;;;;;;5152860;27;20557;-47
2022/04/02 12:39:54;;;;;;;6.60;2.97;;;7.20;69.50;;;;;;5151953;27;20038;-47
2022/04/02 12:42:40;;;;;;;4.13;2.70;;;7.40;70.00;;;;;;5152326;27;20031;-46
2022/04/02 12:45:20;;;;;;;5.75;3.80;;;7.70;70.10;;;;;;5151842;27;20034;-47
2022/04/02 12:48:14;;;;;;;3.17;2.33;;;8.10;68.40;;;;;;5152271;27;20376;-48
2022/04/02 12:50:49;;;;;;;5.45;2.83;;;8.30;67.00;;;;;;5151834;27;20420;-48
2022/04/02 12:53:34;;;;;;;4.03;2.60;;;8.30;67.30;;;;;;5152335;27;20049;-46
2022/04/02 12:56:02;;;;;;;4.78;2.67;;;7.90;65.90;;;;;;5150606;27;20040;-47
2022/04/02 12:58:38;;;;;;;4.95;2.58;;;7.70;66.80;;;;;;5147755;27;20019;-47
2022/04/02 13:01:28;;;;;;;3.70;2.47;;;7.60;67.00;;;;;;5143111;27;20035;-50
2022/04/02 13:04:13;;;;;;;5.38;2.70;;;7.60;66.70;;;;;;5141637;27;20035;-48
2022/04/02 13:06:44;;;;;;;4.15;2.75;;;7.50;67.40;;;;;;5151892;27;20114;-46
2022/04/02 13:09:17;;;;;;;5.75;2.90;;;7.30;68.60;;;;;;5151272;27;20506;-47
2022/04/02 13:11:58;;;;;;;5.75;2.78;;;7.30;68.20;;;;;;5151902;27;20173;-47
2022/04/02 13:14:34;;;;;;;4.28;2.67;;;7.30;67.90;;;;;;5150265;27;20483;-47
2022/04/02 13:17:14;;;;;;;5.10;2.55;;;7.00;68.30;;;;;;5151607;27;20022;-49